Search for airport 
image banner adimage banner adimage banner ad
image banner ad

O57 - Bryant Field

Located in Bridgeport, United States

ICAO - O57, IATA -

Data provided by Airmate  

General information

Coordinates: N38°15'53" W119°13'22"
Elevation is 6472 feet MSL.
Magnetic variation is 16° East
View others Airports in California

Operational data

Special qualification required
Current time UTC:
Current local time:
Weather at : KHTH - Hawthorne Industrial ( 60 km )
METAR: KHTH 221335Z AUTO 00000KT 10SM CLR 20/M03 A3000 RMK A01
View NOTAMs / SUP AIP / TFR affecting this airport [VIEW]
Communications frequencies: [VIEW]

Runways:

RWY identifierQFULength (ft)Width (ft)SurfaceLDA (ft)
16385460ASPH
34385460ASPH

Airport contact information

Address: Bridgeport United States

Satellite view of O57